Time;durP1;ratioP1;P1;durP2;ratioP2;P2;SDS_P1;SDS_P2;PMS_P1;PMS_P2;Temp;Humidity;BMP_temperature;BMP_pressure;BME280_temperature;BME280_humidity;BME280_pressure;Samples;Min_cycle;Max_cycle;Signal;HPM_P1;HPM_P2
2022/08/15 00:01:00;;;;;;;8.98;8.07;;;19.80;95.20;;;;;;5055808;28;20213;-72
2022/08/15 00:03:32;;;;;;;8.55;7.85;;;19.70;95.30;;;;;;5055087;28;20197;-72
2022/08/15 00:06:03;;;;;;;8.95;8.15;;;19.80;95.30;;;;;;5055419;28;20179;-72
2022/08/15 00:08:31;;;;;;;12.05;8.32;;;19.90;95.20;;;;;;5054188;28;20174;-72
2022/08/15 00:11:01;;;;;;;8.63;7.90;;;19.80;95.20;;;;;;5055610;28;20214;-72
2022/08/15 00:13:59;;;;;;;8.55;7.75;;;19.70;95.40;;;;;;5054024;28;20202;-72
2022/08/15 00:16:25;;;;;;;8.45;7.65;;;19.80;95.40;;;;;;5054282;28;20696;-72
2022/08/15 00:18:50;;;;;;;9.05;8.25;;;19.90;95.60;;;;;;5054019;28;20184;-72
2022/08/15 00:21:20;;;;;;;9.35;8.55;;;19.90;95.50;;;;;;5054659;28;20206;-72
2022/08/15 00:23:47;;;;;;;8.82;8.02;;;19.80;95.80;;;;;;5054689;28;20257;-72
2022/08/15 00:26:14;;;;;;;9.15;8.38;;;19.90;95.80;;;;;;5054391;28;20205;-72
2022/08/15 00:28:39;;;;;;;9.20;8.40;;;19.90;96.00;;;;;;5053689;28;20182;-72
2022/08/15 00:31:08;;;;;;;8.40;7.80;;;19.90;96.40;;;;;;5054933;28;20174;-72
2022/08/15 00:33:34;;;;;;;9.40;8.40;;;19.90;96.30;;;;;;5053910;28;20198;-72
2022/08/15 00:36:00;;;;;;;8.85;8.15;;;19.90;96.50;;;;;;5053645;28;20182;-72
2022/08/15 00:38:28;;;;;;;9.52;8.50;;;19.80;96.60;;;;;;5053907;28;20189;-72
2022/08/15 00:43:49;;;;;;;9.85;8.98;;;19.70;97.10;;;;;;5055317;28;20174;-72
2022/08/15 00:46:16;;;;;;;9.50;8.60;;;19.70;97.30;;;;;;5053471;28;20170;-72
2022/08/15 00:48:43;;;;;;;9.02;8.13;;;19.60;97.30;;;;;;5053730;28;20660;-72
2022/08/15 00:51:20;;;;;;;9.45;8.55;;;19.50;97.50;;;;;;5054481;28;20193;-72
2022/08/15 00:53:52;;;;;;;9.32;8.43;;;19.60;97.80;;;;;;5054132;28;20264;-72
2022/08/15 00:56:21;;;;;;;9.57;8.88;;;19.60;97.80;;;;;;5054790;28;20165;-72
2022/08/15 00:58:47;;;;;;;9.35;8.55;;;19.60;98.30;;;;;;5054438;28;20174;-72
2022/08/15 01:01:14;;;;;;;9.57;8.77;;;19.60;98.10;;;;;;5053088;28;20202;-72
2022/08/15 01:03:44;;;;;;;9.18;8.38;;;19.70;98.00;;;;;;5053928;28;20194;-72
2022/08/15 01:06:11;;;;;;;9.50;8.60;;;19.70;98.00;;;;;;5054523;28;20163;-72
2022/08/15 01:08:39;;;;;;;8.95;8.18;;;19.70;97.80;;;;;;5053410;28;20185;-72
2022/08/15 01:11:12;;;;;;;9.45;8.52;;;19.70;97.80;;;;;;5054177;28;20634;-72
2022/08/15 01:13:39;;;;;;;9.90;9.10;;;19.70;98.10;;;;;;5052943;28;20206;-72
2022/08/15 01:16:05;;;;;;;9.10;8.40;;;19.60;98.30;;;;;;5052808;28;20182;-72
2022/08/15 01:18:31;;;;;;;10.10;8.73;;;19.60;98.50;;;;;;5054648;28;20193;-72
2022/08/15 01:21:04;;;;;;;9.55;8.77;;;19.50;98.70;;;;;;5052705;28;20201;-72
2022/08/15 01:23:54;;;;;;;9.85;8.80;;;19.60;98.80;;;;;;5053883;28;20723;-72
2022/08/15 01:26:21;;;;;;;9.43;8.52;;;19.60;98.90;;;;;;5052799;28;20170;-72
2022/08/15 01:28:47;;;;;;;9.82;8.80;;;19.60;98.90;;;;;;5054688;28;20224;-72
2022/08/15 01:31:16;;;;;;;9.98;8.77;;;19.70;98.90;;;;;;5053871;28;20174;-72
2022/08/15 01:33:47;;;;;;;9.60;8.80;;;19.60;99.00;;;;;;5052675;28;20198;-72
2022/08/15 01:36:14;;;;;;;10.07;9.20;;;19.60;98.90;;;;;;5052550;28;20300;-72
2022/08/15 01:38:48;;;;;;;10.00;9.10;;;19.50;98.90;;;;;;5052502;28;20178;-72
2022/08/15 01:41:29;;;;;;;9.52;8.73;;;19.30;99.00;;;;;;5053919;28;20201;-72
2022/08/15 01:43:57;;;;;;;9.50;8.68;;;19.20;99.30;;;;;;5052916;28;20170;-72
2022/08/15 01:46:25;;;;;;;9.90;9.00;;;19.10;99.40;;;;;;5054393;28;20174;-72
2022/08/15 01:48:58;;;;;;;11.70;9.35;;;19.00;99.60;;;;;;5052434;28;20174;-72
2022/08/15 01:51:23;;;;;;;10.75;9.63;;;18.90;99.70;;;;;;5052141;28;20545;-72
2022/08/15 01:54:18;;;;;;;10.32;9.43;;;18.90;99.80;;;;;;5051683;28;20211;-72
2022/08/15 01:56:46;;;;;;;10.75;9.85;;;18.90;99.90;;;;;;5053176;28;20190;-72
2022/08/15 01:59:20;;;;;;;10.02;9.05;;;18.80;99.90;;;;;;5052260;28;20201;-72
2022/08/15 02:01:59;;;;;;;10.40;9.57;;;18.90;99.90;;;;;;5053327;28;20275;-72
2022/08/15 02:04:28;;;;;;;9.95;8.95;;;18.90;99.90;;;;;;5053056;28;20174;-72
2022/08/15 02:07:00;;;;;;;15.95;9.13;;;18.90;99.90;;;;;;5052107;28;20178;-72
2022/08/15 02:09:27;;;;;;;9.93;9.13;;;18.80;99.90;;;;;;5052338;28;20174;-72
2022/08/15 02:11:54;;;;;;;13.18;8.90;;;18.80;99.90;;;;;;5052329;28;20229;-72
2022/08/15 02:14:20;;;;;;;16.85;9.35;;;18.90;99.90;;;;;;5051990;28;20178;-72
2022/08/15 02:16:47;;;;;;;22.55;9.95;;;18.80;99.90;;;;;;5052346;28;20174;-72
2022/08/15 02:19:14;;;;;;;14.38;10.02;;;18.70;99.90;;;;;;5052045;28;20265;-72
2022/08/15 02:21:43;;;;;;;14.80;9.77;;;18.70;99.90;;;;;;5051849;28;20233;-72
2022/08/15 02:24:17;;;;;;;12.18;9.48;;;18.70;99.90;;;;;;5053467;28;20181;-72
2022/08/15 02:26:43;;;;;;;10.73;9.65;;;18.70;99.90;;;;;;5052885;28;20303;-72
2022/08/15 02:29:08;;;;;;;12.43;9.80;;;18.70;99.90;;;;;;5051988;28;20189;-72
2022/08/15 02:31:34;;;;;;;10.80;9.80;;;18.60;99.90;;;;;;5052172;28;20204;-72
2022/08/15 02:34:02;;;;;;;10.63;9.73;;;18.60;99.90;;;;;;5053379;28;20170;-72
2022/08/15 02:36:31;;;;;;;11.48;10.00;;;18.40;99.90;;;;;;5053307;28;20184;-72
2022/08/15 02:38:59;;;;;;;11.50;10.30;;;18.40;99.90;;;;;;5053362;28;20170;-72
2022/08/15 02:41:33;;;;;;;11.38;10.18;;;18.30;99.90;;;;;;5052894;28;20210;-72
2022/08/15 02:44:01;;;;;;;10.98;9.75;;;18.30;99.90;;;;;;5052209;28;20166;-72
2022/08/15 02:46:29;;;;;;;11.80;10.68;;;18.40;99.90;;;;;;5051793;28;20644;-72
2022/08/15 02:48:58;;;;;;;11.45;10.45;;;18.20;99.90;;;;;;5052056;28;20278;-72
2022/08/15 02:51:25;;;;;;;11.25;10.15;;;18.20;99.90;;;;;;5052053;28;20201;-72
2022/08/15 02:53:52;;;;;;;12.30;9.85;;;18.20;99.90;;;;;;5051932;28;20263;-72
2022/08/15 02:56:22;;;;;;;11.57;10.20;;;18.20;99.90;;;;;;5051949;28;20186;-72
2022/08/15 02:58:48;;;;;;;12.23;10.30;;;18.10;99.90;;;;;;5052421;28;20185;-72
2022/08/15 03:01:15;;;;;;;11.20;10.13;;;18.20;99.90;;;;;;5052731;28;20684;-72
2022/08/15 03:03:45;;;;;;;11.55;10.35;;;18.10;99.90;;;;;;5052585;28;20228;-72
2022/08/15 03:06:13;;;;;;;11.85;10.43;;;18.10;99.90;;;;;;5055300;28;20253;-72
2022/08/15 03:08:40;;;;;;;23.00;10.63;;;18.10;99.90;;;;;;5055342;28;20201;-72
2022/08/15 03:11:08;;;;;;;11.35;10.30;;;18.00;99.90;;;;;;5056450;28;20170;-72
2022/08/15 03:13:35;;;;;;;12.18;10.43;;;18.00;99.90;;;;;;5055179;28;20224;-72
2022/08/15 03:16:01;;;;;;;11.80;10.77;;;18.00;99.90;;;;;;5055561;28;20178;-72
2022/08/15 03:18:30;;;;;;;11.07;10.00;;;18.00;99.90;;;;;;5055069;28;20182;-72
2022/08/15 03:20:57;;;;;;;11.48;10.20;;;18.00;99.90;;;;;;5055854;28;20216;-72
2022/08/15 03:23:27;;;;;;;12.40;9.73;;;18.10;99.90;;;;;;5054987;28;20198;-72
2022/08/15 03:25:59;;;;;;;11.77;10.50;;;18.10;99.90;;;;;;5056502;28;20154;-72
2022/08/15 03:28:29;;;;;;;12.05;10.77;;;18.00;99.90;;;;;;5056411;28;20194;-72
2022/08/15 03:30:56;;;;;;;11.75;10.68;;;18.00;99.90;;;;;;5055791;28;20198;-72
2022/08/15 03:33:22;;;;;;;12.00;10.35;;;18.00;99.90;;;;;;5054762;28;20202;-72
2022/08/15 03:35:50;;;;;;;13.65;10.88;;;18.00;99.90;;;;;;5055189;28;20217;-72
2022/08/15 03:38:17;;;;;;;12.45;10.90;;;17.90;99.90;;;;;;5054679;28;20775;-72
2022/08/15 03:40:45;;;;;;;11.48;10.35;;;17.70;99.90;;;;;;5054607;28;20209;-72
2022/08/15 03:43:20;;;;;;;11.27;10.23;;;17.70;99.90;;;;;;5054610;28;20202;-72
2022/08/15 03:45:51;;;;;;;11.77;10.68;;;17.90;99.90;;;;;;5054668;28;20190;-72
2022/08/15 03:48:18;;;;;;;11.60;9.50;;;18.00;99.90;;;;;;5054628;28;20174;-72
2022/08/15 03:50:45;;;;;;;11.30;10.18;;;18.10;99.90;;;;;;5054716;28;20194;-72
2022/08/15 03:53:11;;;;;;;10.98;9.88;;;18.20;99.90;;;;;;5055313;28;20213;-72
2022/08/15 03:55:40;;;;;;;10.98;10.00;;;18.20;99.90;;;;;;5054409;28;20182;-72
2022/08/15 03:58:06;;;;;;;10.48;9.45;;;18.30;99.90;;;;;;5054758;28;20182;-72
2022/08/15 04:00:39;;;;;;;11.38;10.27;;;18.30;99.90;;;;;;5054328;28;20182;-72
2022/08/15 04:03:15;;;;;;;11.02;10.05;;;18.30;99.90;;;;;;5055537;28;20218;-72
2022/08/15 04:05:42;;;;;;;11.48;10.38;;;18.40;99.90;;;;;;5055098;28;20170;-72
2022/08/15 04:08:10;;;;;;;11.15;10.18;;;18.30;99.90;;;;;;5054575;28;20174;-72
2022/08/15 04:10:37;;;;;;;11.25;10.10;;;18.30;99.90;;;;;;5054065;28;20186;-72
2022/08/15 04:13:06;;;;;;;11.27;9.85;;;18.30;99.90;;;;;;5055322;28;20198;-72
2022/08/15 04:15:33;;;;;;;10.65;9.65;;;18.40;99.90;;;;;;5054036;28;20179;-72
2022/08/15 04:18:00;;;;;;;11.77;10.05;;;18.40;99.90;;;;;;5054257;28;20178;-72
2022/08/15 04:20:28;;;;;;;11.55;10.48;;;18.40;99.90;;;;;;5055283;28;20174;-72
2022/08/15 04:22:54;;;;;;;10.80;9.90;;;18.40;99.90;;;;;;5054639;28;20198;-72
2022/08/15 04:25:28;;;;;;;12.52;10.20;;;18.40;99.90;;;;;;5053944;28;20189;-72
2022/08/15 04:27:59;;;;;;;10.95;9.98;;;18.40;99.90;;;;;;5054947;28;20177;-72
2022/08/15 04:30:28;;;;;;;10.95;9.88;;;18.40;99.90;;;;;;5053870;28;20170;-72
2022/08/15 04:33:04;;;;;;;10.70;9.70;;;18.40;99.90;;;;;;5053767;28;20201;-72
2022/08/15 04:35:29;;;;;;;11.15;10.00;;;18.30;99.90;;;;;;5054162;28;20181;-72
2022/08/15 04:37:55;;;;;;;10.50;9.60;;;18.40;99.90;;;;;;5053647;28;20175;-72
2022/08/15 04:40:20;;;;;;;10.82;9.88;;;18.50;99.90;;;;;;5053616;28;20205;-72
2022/08/15 04:42:51;;;;;;;13.15;10.00;;;18.60;99.90;;;;;;5053538;28;20194;-72
2022/08/15 04:45:17;;;;;;;11.60;10.50;;;18.70;99.90;;;;;;5055020;28;20179;-72
2022/08/15 04:47:42;;;;;;;11.75;10.52;;;18.80;99.90;;;;;;5054977;28;20178;-72
2022/08/15 04:50:08;;;;;;;9.77;8.88;;;18.80;99.90;;;;;;5053566;28;20599;-72
2022/08/15 04:52:45;;;;;;;11.13;9.98;;;18.90;99.90;;;;;;5053307;28;20205;-72
2022/08/15 04:55:13;;;;;;;10.85;9.80;;;18.90;99.90;;;;;;5054177;28;20170;-72
2022/08/15 04:57:40;;;;;;;10.63;9.82;;;19.00;99.90;;;;;;5053255;28;20192;-72
2022/08/15 05:00:10;;;;;;;13.82;9.93;;;19.10;99.90;;;;;;5054416;28;20174;-72
2022/08/15 05:02:37;;;;;;;11.07;10.02;;;19.00;99.90;;;;;;5053801;28;20210;-72
2022/08/15 05:05:04;;;;;;;17.17;10.48;;;19.00;99.90;;;;;;5053912;28;20171;-71
2022/08/15 05:07:30;;;;;;;16.33;11.32;;;19.00;99.90;;;;;;5053156;28;20170;-72
2022/08/15 05:09:57;;;;;;;11.57;10.48;;;19.00;99.90;;;;;;5053866;28;20518;-72
2022/08/15 05:12:23;;;;;;;13.80;10.88;;;19.00;99.90;;;;;;5054134;28;20279;-72
2022/08/15 05:14:49;;;;;;;11.63;10.52;;;19.00;99.90;;;;;;5054213;28;20202;-72
2022/08/15 05:17:15;;;;;;;11.30;10.27;;;19.10;99.90;;;;;;5052824;28;20324;-72
2022/08/15 05:19:40;;;;;;;18.45;11.60;;;19.10;99.90;;;;;;5052821;28;20265;-71
2022/08/15 05:22:06;;;;;;;11.57;10.38;;;19.10;99.90;;;;;;5053002;28;20210;-71
2022/08/15 05:24:32;;;;;;;11.40;10.32;;;19.10;99.90;;;;;;5052997;28;20655;-71
2022/08/15 05:26:58;;;;;;;11.90;10.80;;;19.00;99.90;;;;;;5053923;28;20177;-71
2022/08/15 05:29:25;;;;;;;12.05;10.75;;;19.00;99.90;;;;;;5051860;28;20671;-71
2022/08/15 05:31:51;;;;;;;11.32;10.30;;;18.90;99.90;;;;;;5054067;28;20202;-71
2022/08/15 05:34:19;;;;;;;11.20;10.18;;;18.90;99.90;;;;;;5052919;28;20269;-71
2022/08/15 05:36:48;;;;;;;11.68;10.38;;;18.90;99.90;;;;;;5054011;28;20193;-72
2022/08/15 05:39:32;;;;;;;11.30;10.27;;;19.10;99.90;;;;;;5052469;28;20556;-72
2022/08/15 05:42:25;;;;;;;11.40;10.30;;;19.10;99.90;;;;;;5053607;28;20210;-72
2022/08/15 05:45:09;;;;;;;10.93;9.80;;;19.20;99.90;;;;;;5053995;28;20155;-72
2022/08/15 05:47:47;;;;;;;11.15;10.25;;;19.30;99.90;;;;;;5053297;28;20261;-72
2022/08/15 05:50:20;;;;;;;10.98;10.02;;;19.40;99.90;;;;;;5052334;28;20239;-72
2022/08/15 05:53:27;;;;;;;12.25;9.85;;;19.40;99.90;;;;;;5052293;28;20210;-72
2022/08/15 05:56:19;;;;;;;11.07;10.07;;;19.50;99.90;;;;;;5049528;28;20205;-72
2022/08/15 05:58:56;;;;;;;10.50;9.48;;;19.60;99.90;;;;;;5053092;28;20178;-71
2022/08/15 06:01:30;;;;;;;10.70;9.80;;;19.60;99.90;;;;;;5052131;28;20594;-71
2022/08/15 06:04:17;;;;;;;11.00;10.00;;;19.70;99.90;;;;;;5053425;28;20173;-71
2022/08/15 06:06:45;;;;;;;10.75;9.75;;;19.80;99.90;;;;;;5053052;28;20167;-71
2022/08/15 06:09:29;;;;;;;10.25;9.35;;;19.80;99.90;;;;;;5052002;28;20181;-71
2022/08/15 06:11:58;;;;;;;11.82;9.68;;;20.00;99.90;;;;;;5052772;28;20206;-71
2022/08/15 06:14:32;;;;;;;11.60;10.60;;;20.10;99.90;;;;;;5052297;28;20632;-71
2022/08/15 06:17:05;;;;;;;10.88;9.82;;;20.40;99.90;;;;;;5052038;28;20170;-71
2022/08/15 06:19:35;;;;;;;10.77;9.70;;;20.60;99.90;;;;;;5052975;28;20169;-72
2022/08/15 06:22:33;;;;;;;14.55;10.60;;;20.90;99.90;;;;;;5053368;28;20214;-72
2022/08/15 06:25:01;;;;;;;14.93;9.48;;;21.10;99.90;;;;;;5053115;28;20166;-72
2022/08/15 06:27:41;;;;;;;11.57;10.30;;;21.40;99.90;;;;;;5052259;28;20269;-72
2022/08/15 06:30:12;;;;;;;12.20;10.75;;;21.50;99.90;;;;;;5052511;28;20159;-71
2022/08/15 06:32:57;;;;;;;12.55;10.25;;;21.70;99.90;;;;;;5052741;28;20209;-71
2022/08/15 06:39:04;;;;;;;11.05;10.05;;;22.00;99.90;;;;;;5053414;28;20288;-71
2022/08/15 06:44:58;;;;;;;10.15;9.35;;;22.20;99.90;;;;;;5057298;28;20579;-71
2022/08/15 06:47:28;;;;;;;10.50;9.50;;;22.40;99.90;;;;;;5055745;28;20536;-71
2022/08/15 06:49:59;;;;;;;10.90;9.98;;;22.40;99.90;;;;;;5056188;28;20289;-71
2022/08/15 06:52:28;;;;;;;9.77;8.95;;;22.50;99.90;;;;;;5055584;28;20198;-71
2022/08/15 06:54:58;;;;;;;9.75;8.95;;;22.40;99.90;;;;;;5055753;28;20228;-71
2022/08/15 06:57:53;;;;;;;13.68;8.32;;;22.40;99.80;;;;;;5056784;28;20656;-72
2022/08/15 07:00:29;;;;;;;8.43;7.82;;;22.40;98.60;;;;;;5057311;28;20253;-72
2022/08/15 07:03:30;;;;;;;9.70;8.73;;;22.70;98.80;;;;;;5055474;28;20208;-72
2022/08/15 07:09:23;;;;;;;9.27;8.32;;;22.80;99.60;;;;;;5056784;28;20153;-72
2022/08/15 07:11:59;;;;;;;9.02;8.20;;;22.80;99.90;;;;;;5056550;28;20194;-72
2022/08/15 07:14:38;;;;;;;8.30;7.65;;;22.90;99.10;;;;;;5055259;28;20537;-72
2022/08/15 07:17:23;;;;;;;9.02;8.23;;;22.90;98.90;;;;;;5056451;28;20182;-72
2022/08/15 07:19:48;;;;;;;11.10;8.60;;;22.80;98.40;;;;;;5055484;28;20171;-72
2022/08/15 07:22:14;;;;;;;9.15;8.25;;;22.60;99.20;;;;;;5055245;28;20221;-71
2022/08/15 07:24:49;;;;;;;9.30;8.60;;;22.70;99.60;;;;;;5056257;28;20660;-71
2022/08/15 07:27:18;;;;;;;9.90;8.65;;;22.50;99.50;;;;;;5055885;28;20212;-71
2022/08/15 07:29:54;;;;;;;9.35;8.15;;;22.50;99.90;;;;;;5055292;28;20182;-71
2022/08/15 07:32:20;;;;;;;9.45;8.52;;;22.50;99.60;;;;;;5055387;28;20562;-72
2022/08/15 07:35:14;;;;;;;8.75;7.95;;;22.40;99.90;;;;;;5055615;28;20178;-72
2022/08/15 07:37:47;;;;;;;13.20;8.50;;;22.50;99.90;;;;;;5055956;28;20563;-72
2022/08/15 07:40:13;;;;;;;10.15;8.63;;;22.50;99.50;;;;;;5054764;28;20167;-71
2022/08/15 07:42:41;;;;;;;13.82;8.77;;;22.40;99.40;;;;;;5055153;28;20229;-71
2022/08/15 07:45:17;;;;;;;17.60;9.48;;;22.30;99.90;;;;;;5054570;28;20265;-72
2022/08/15 07:47:57;;;;;;;12.00;7.88;;;22.30;99.90;;;;;;5056119;28;20170;-71
2022/08/15 07:50:37;;;;;;;9.63;7.68;;;22.20;99.50;;;;;;5054594;28;20194;-72
2022/08/15 07:53:23;;;;;;;10.30;8.00;;;22.10;99.50;;;;;;5054977;28;20284;-72
2022/08/15 07:56:12;;;;;;;9.10;7.20;;;22.00;99.80;;;;;;5054430;28;20182;-72
2022/08/15 07:58:39;;;;;;;8.50;7.00;;;21.90;99.90;;;;;;5054427;28;20178;-72
2022/08/15 08:01:27;;;;;;;7.47;6.63;;;21.80;99.90;;;;;;5054287;28;20194;-72
2022/08/15 08:04:09;;;;;;;9.32;6.28;;;21.80;99.90;;;;;;5055497;28;20178;-72
2022/08/15 08:06:40;;;;;;;8.07;6.30;;;21.80;99.70;;;;;;5055223;28;20178;-72
2022/08/15 08:09:05;;;;;;;8.00;6.00;;;21.80;99.90;;;;;;5055411;28;20645;-72
2022/08/15 08:11:45;;;;;;;7.82;6.18;;;21.90;99.90;;;;;;5054466;28;20273;-72
2022/08/15 08:14:44;;;;;;;6.38;5.47;;;21.90;99.90;;;;;;5054201;28;20241;-72
2022/08/15 08:17:18;;;;;;;8.93;5.50;;;22.10;99.90;;;;;;5054096;28;20174;-72
2022/08/15 08:20:03;;;;;;;6.00;5.40;;;22.20;99.70;;;;;;5054911;28;20212;-72
2022/08/15 08:22:50;;;;;;;9.75;5.55;;;22.20;99.70;;;;;;5053902;28;20301;-72
2022/08/15 08:25:33;;;;;;;8.27;4.70;;;22.20;99.00;;;;;;5053975;28;20529;-72
2022/08/15 08:28:27;;;;;;;5.47;4.97;;;22.30;98.90;;;;;;5053889;28;20202;-72
2022/08/15 08:31:11;;;;;;;5.47;4.82;;;22.30;98.60;;;;;;5051145;28;20186;-72
2022/08/15 08:34:11;;;;;;;10.90;5.00;;;22.40;99.00;;;;;;5054145;28;20262;-72
2022/08/15 08:37:01;;;;;;;6.35;4.78;;;22.50;98.70;;;;;;5054380;28;20174;-72
2022/08/15 08:39:42;;;;;;;9.65;5.13;;;22.60;98.90;;;;;;5054905;28;20241;-72
2022/08/15 08:42:30;;;;;;;6.35;5.10;;;22.60;98.50;;;;;;5054124;28;20210;-72
2022/08/15 08:45:07;;;;;;;8.13;4.88;;;22.80;98.50;;;;;;5055390;28;20166;-72
2022/08/15 08:47:58;;;;;;;5.32;4.20;;;23.00;97.70;;;;;;5054405;28;20228;-72
2022/08/15 08:50:48;;;;;;;14.68;4.60;;;23.20;97.40;;;;;;5053758;28;20198;-72
2022/08/15 08:53:32;;;;;;;5.13;4.03;;;23.40;96.90;;;;;;5053288;28;20674;-72
2022/08/15 08:56:14;;;;;;;6.55;4.60;;;23.50;96.90;;;;;;5054556;28;20159;-72
2022/08/15 08:58:51;;;;;;;4.95;4.30;;;23.40;96.90;;;;;;5054117;28;20167;-72
2022/08/15 09:01:23;;;;;;;7.68;4.03;;;23.40;97.00;;;;;;5054043;28;20186;-72
2022/08/15 09:03:54;;;;;;;7.15;4.15;;;23.40;96.00;;;;;;5053937;28;20167;-72
2022/08/15 09:06:24;;;;;;;6.32;4.30;;;23.50;96.50;;;;;;5053997;28;20170;-72
2022/08/15 09:08:57;;;;;;;6.80;4.30;;;23.50;95.90;;;;;;5053218;28;20170;-72
2022/08/15 09:11:26;;;;;;;4.55;4.07;;;23.60;96.00;;;;;;5054097;28;20517;-72
2022/08/15 09:14:03;;;;;;;6.03;3.95;;;23.80;95.90;;;;;;5053279;28;20572;-72
2022/08/15 09:16:34;;;;;;;12.88;4.50;;;23.90;95.60;;;;;;5054106;28;20224;-72
2022/08/15 09:19:25;;;;;;;6.47;4.15;;;24.10;94.80;;;;;;5054395;28;20163;-72
2022/08/15 09:21:51;;;;;;;7.55;4.32;;;24.40;94.50;;;;;;5051381;28;20228;-72
2022/08/15 09:24:19;;;;;;;9.20;4.40;;;24.50;93.80;;;;;;5053145;28;20174;-72
2022/08/15 09:27:07;;;;;;;4.93;4.15;;;24.80;94.00;;;;;;5053021;28;20184;-72
2022/08/15 09:29:37;;;;;;;5.60;4.05;;;24.70;93.40;;;;;;5052724;28;20673;-72
2022/08/15 09:32:07;;;;;;;8.80;4.40;;;24.90;92.50;;;;;;5052510;28;20248;-72
2022/08/15 09:34:51;;;;;;;6.28;4.05;;;25.00;92.10;;;;;;5053860;28;20593;-72
2022/08/15 09:37:22;;;;;;;5.68;4.10;;;25.30;91.80;;;;;;5052764;28;20162;-72
2022/08/15 09:40:13;;;;;;;8.52;4.10;;;25.50;91.20;;;;;;5052867;28;20241;-72
2022/08/15 09:46:25;;;;;;;4.72;3.92;;;26.10;89.50;;;;;;5053722;28;20203;-72
2022/08/15 09:49:32;;;;;;;7.28;4.40;;;26.60;88.40;;;;;;5053272;28;20206;-72
2022/08/15 09:52:36;;;;;;;4.78;4.30;;;26.90;85.80;;;;;;5051923;28;20632;-72
2022/08/15 09:55:18;;;;;;;5.95;4.00;;;27.20;82.70;;;;;;5046386;28;20182;-72
2022/08/15 09:57:54;;;;;;;4.60;3.95;;;27.40;81.00;;;;;;5052372;28;20656;-73
2022/08/15 10:00:41;;;;;;;4.72;3.75;;;28.10;78.20;;;;;;5052625;28;20174;-72
2022/08/15 10:03:24;;;;;;;9.48;3.80;;;28.00;78.60;;;;;;5052104;28;20197;-73
2022/08/15 10:06:10;;;;;;;5.97;4.03;;;28.00;76.50;;;;;;5053186;28;20249;-72
2022/08/15 10:09:11;;;;;;;5.53;3.80;;;27.90;75.60;;;;;;5051950;28;20185;-72
2022/08/15 10:11:38;;;;;;;7.53;4.25;;;27.60;76.10;;;;;;5053155;28;20170;-73
2022/08/15 10:14:44;;;;;;;4.70;3.97;;;27.40;76.60;;;;;;5052800;28;20645;-72
2022/08/15 10:17:25;;;;;;;5.80;4.18;;;27.50;76.60;;;;;;5048095;28;20212;-72
2022/08/15 10:19:51;;;;;;;6.90;3.85;;;27.80;75.40;;;;;;5053788;28;20170;-72
2022/08/15 10:22:24;;;;;;;5.90;3.97;;;27.80;75.00;;;;;;5051888;28;20209;-72
2022/08/15 10:25:35;;;;;;;5.35;3.70;;;27.70;75.30;;;;;;5053179;28;20173;-72
2022/08/15 10:28:10;;;;;;;5.82;4.00;;;27.50;74.60;;;;;;5049773;28;20265;-72
2022/08/15 10:30:41;;;;;;;5.80;3.80;;;27.00;76.20;;;;;;5052735;28;20181;-73
2022/08/15 10:33:27;;;;;;;6.32;4.00;;;26.90;76.10;;;;;;5052846;28;20292;-72
2022/08/15 10:36:02;;;;;;;7.93;3.97;;;26.80;78.70;;;;;;5053098;28;20170;-72
2022/08/15 10:38:29;;;;;;;4.75;3.75;;;26.90;79.30;;;;;;5051874;28;20265;-72
2022/08/15 10:41:34;;;;;;;5.45;3.80;;;27.00;77.10;;;;;;5053428;28;20238;-73
2022/08/15 10:44:22;;;;;;;6.47;3.80;;;27.10;76.30;;;;;;5053413;28;20185;-72
2022/08/15 10:47:08;;;;;;;7.72;3.78;;;27.30;75.30;;;;;;5052214;28;20645;-72
2022/08/15 10:50:04;;;;;;;3.63;3.17;;;27.50;75.80;;;;;;5051640;28;20224;-72
2022/08/15 10:52:55;;;;;;;9.05;7.50;;;27.80;72.70;;;;;;5051903;28;20202;-72
2022/08/15 10:55:26;;;;;;;9.63;8.40;;;27.90;70.20;;;;;;5052877;28;20194;-73
2022/08/15 10:58:02;;;;;;;5.38;4.57;;;28.10;71.80;;;;;;5052364;28;20187;-72
2022/08/15 11:00:37;;;;;;;4.57;3.63;;;28.50;70.80;;;;;;5053529;28;20166;-73
2022/08/15 11:03:22;;;;;;;7.30;4.07;;;28.70;70.00;;;;;;5052359;28;20206;-73
2022/08/15 11:06:03;;;;;;;7.00;4.03;;;28.90;69.30;;;;;;5052172;28;20162;-72
2022/08/15 11:08:29;;;;;;;6.60;3.70;;;29.00;70.00;;;;;;5052528;28;20542;-72
2022/08/15 11:11:05;;;;;;;16.63;6.13;;;29.20;68.80;;;;;;5051953;28;20174;-72
2022/08/15 11:13:32;;;;;;;5.57;3.65;;;29.10;68.00;;;;;;5052861;28;20269;-72
2022/08/15 11:16:22;;;;;;;9.15;6.47;;;28.80;68.20;;;;;;5051596;28;20304;-72
2022/08/15 11:18:52;;;;;;;8.50;6.40;;;28.70;69.10;;;;;;5051628;28;20196;-73
2022/08/15 11:21:43;;;;;;;7.93;5.15;;;28.80;68.30;;;;;;5051764;28;20206;-73
2022/08/15 11:24:11;;;;;;;7.65;4.97;;;28.90;68.00;;;;;;5053918;28;20190;-73
2022/08/15 11:26:45;;;;;;;13.50;7.95;;;28.70;67.30;;;;;;5053892;28;20253;-73
2022/08/15 11:29:21;;;;;;;12.50;8.90;;;28.70;67.40;;;;;;5055972;28;20165;-72
2022/08/15 11:36:03;;;;;;;4.00;3.50;;;28.80;67.10;;;;;;5056635;28;20304;-73
2022/08/15 11:38:35;;;;;;;7.95;3.80;;;29.00;66.60;;;;;;5055666;28;20166;-72
2022/08/15 11:41:01;;;;;;;6.22;3.65;;;29.20;65.70;;;;;;5054749;28;20247;-72
2022/08/15 11:43:27;;;;;;;7.18;3.60;;;29.20;65.30;;;;;;5054741;28;20669;-72
2022/08/15 11:45:55;;;;;;;4.47;3.50;;;29.10;65.10;;;;;;5055831;28;20186;-72
2022/08/15 11:48:31;;;;;;;5.47;3.75;;;29.30;67.00;;;;;;5055960;28;20170;-72
2022/08/15 11:51:08;;;;;;;6.18;3.88;;;29.40;67.30;;;;;;5056294;28;20211;-72
2022/08/15 11:54:00;;;;;;;5.15;3.67;;;29.20;66.30;;;;;;5054459;28;20291;-73
2022/08/15 11:56:44;;;;;;;6.47;3.80;;;29.10;67.50;;;;;;5054443;28;20189;-73
2022/08/15 11:59:18;;;;;;;7.82;3.90;;;29.00;67.30;;;;;;5054586;28;20169;-72
2022/08/15 12:01:58;;;;;;;3.95;3.65;;;28.80;67.70;;;;;;5055008;28;20213;-73
2022/08/15 12:04:29;;;;;;;5.95;3.90;;;28.50;69.10;;;;;;5055742;28;20164;-73
2022/08/15 12:06:55;;;;;;;5.60;4.10;;;28.40;69.20;;;;;;5055432;28;20174;-72
2022/08/15 12:09:24;;;;;;;6.90;4.13;;;28.40;69.90;;;;;;5054513;28;20177;-72
2022/08/15 12:11:50;;;;;;;4.88;3.90;;;28.50;69.00;;;;;;5054072;28;20197;-72
2022/08/15 12:14:23;;;;;;;4.35;3.58;;;28.70;68.90;;;;;;5054687;28;20235;-72
2022/08/15 12:17:00;;;;;;;6.40;3.90;;;28.90;68.20;;;;;;5055554;28;20178;-72
2022/08/15 12:19:34;;;;;;;6.18;3.60;;;29.20;66.20;;;;;;5054134;28;20242;-72
2022/08/15 12:22:07;;;;;;;7.43;3.70;;;29.30;65.10;;;;;;5054677;28;20205;-72
2022/08/15 12:24:34;;;;;;;6.80;3.72;;;29.20;66.30;;;;;;5054007;28;20375;-73
2022/08/15 12:27:01;;;;;;;4.90;3.38;;;29.10;65.80;;;;;;5053952;28;20169;-75
2022/08/15 12:29:29;;;;;;;4.00;3.60;;;29.20;66.40;;;;;;5054298;28;20260;-74
2022/08/15 12:31:56;;;;;;;3.50;3.20;;;29.20;64.50;;;;;;5054122;28;20197;-75
2022/08/15 12:34:36;;;;;;;7.28;3.70;;;29.20;65.10;;;;;;5054668;28;20173;-72
2022/08/15 12:37:06;;;;;;;5.57;3.40;;;29.10;64.50;;;;;;5049468;28;20549;-73
2022/08/15 12:39:49;;;;;;;7.22;3.55;;;28.80;64.90;;;;;;5033787;28;20171;-73
2022/08/15 12:42:34;;;;;;;4.13;3.58;;;28.90;65.30;;;;;;5034261;28;20301;-72
2022/08/15 12:45:15;;;;;;;4.50;3.60;;;29.20;64.80;;;;;;5034048;28;20624;-80
2022/08/15 12:48:49;;;;;;;4.80;3.17;;;29.30;65.10;;;;;;5035235;28;20166;-72
2022/08/15 12:51:16;;;;;;;7.68;3.90;;;29.60;63.10;;;;;;5033906;28;20194;-72
2022/08/15 12:53:42;;;;;;;4.30;3.60;;;29.60;64.10;;;;;;5034897;28;20200;-71
2022/08/15 12:56:09;;;;;;;4.82;3.30;;;29.50;62.50;;;;;;5033774;28;20229;-72
2022/08/15 12:58:36;;;;;;;5.60;3.45;;;29.50;63.40;;;;;;5033517;28;20186;-73
2022/08/15 13:01:05;;;;;;;4.45;3.55;;;29.50;63.70;;;;;;5033436;28;20681;-73
2022/08/15 13:03:33;;;;;;;5.22;3.50;;;29.60;63.30;;;;;;5034041;28;20652;-73
2022/08/15 13:06:05;;;;;;;7.13;3.67;;;29.60;62.40;;;;;;5034650;28;20216;-72
2022/08/15 13:08:31;;;;;;;5.68;3.45;;;29.30;61.60;;;;;;5033297;28;20178;-72
2022/08/15 13:10:57;;;;;;;8.50;3.63;;;29.40;65.60;;;;;;5041996;28;20162;-73
2022/08/15 13:13:23;;;;;;;5.20;3.38;;;29.10;63.80;;;;;;5047349;28;20250;-72
2022/08/15 13:15:50;;;;;;;9.05;3.42;;;28.70;65.50;;;;;;5055196;28;20587;-72
2022/08/15 13:18:20;;;;;;;4.97;3.38;;;28.60;65.70;;;;;;5057416;28;20226;-73
2022/08/15 13:23:35;;;;;;;4.70;3.17;;;28.90;64.40;;;;;;5055477;28;20236;-73
2022/08/15 13:26:02;;;;;;;5.35;3.60;;;29.10;64.70;;;;;;5063652;28;20169;-82
2022/08/15 13:28:30;;;;;;;3.88;3.53;;;28.90;64.60;;;;;;5067939;28;20647;-72
2022/08/15 13:30:56;;;;;;;3.58;3.28;;;28.70;65.80;;;;;;5067214;28;20162;-72
2022/08/15 13:33:22;;;;;;;4.43;3.33;;;28.50;66.30;;;;;;5068572;28;20707;-74
2022/08/15 13:35:48;;;;;;;3.97;3.65;;;28.40;67.30;;;;;;5057143;28;20645;-73
2022/08/15 13:38:18;;;;;;;6.15;3.72;;;28.20;65.90;;;;;;5053792;28;20227;-73